Time;durP1;ratioP1;P1;durP2;ratioP2;P2;SDS_P1;SDS_P2;PMS_P1;PMS_P2;Temp;Humidity;BMP_temperature;BMP_pressure;BME280_temperature;BME280_humidity;BME280_pressure;Samples;Min_cycle;Max_cycle;Signal;HPM_P1;HPM_P2
2022/07/17 05:01:56;;;;;;;6.38;4.05;;;15.80;90.10;;;;;;5679419;23;20281;-73
2022/07/17 05:04:22;;;;;;;6.25;4.07;;;15.90;89.30;;;;;;4936185;29;20249;-73
2022/07/17 05:06:48;;;;;;;7.38;4.10;;;16.00;89.00;;;;;;4944455;29;20101;-73
2022/07/17 05:09:14;;;;;;;6.10;3.80;;;16.10;89.10;;;;;;4943463;29;20032;-73
2022/07/17 05:11:39;;;;;;;6.78;3.80;;;16.10;89.20;;;;;;4944818;29;20098;-73
2022/07/17 05:14:05;;;;;;;5.95;3.67;;;16.10;88.60;;;;;;4943925;29;20032;-73
2022/07/17 05:16:31;;;;;;;6.22;4.30;;;16.20;87.70;;;;;;4944367;29;20062;-73
2022/07/17 05:18:57;;;;;;;6.47;3.97;;;16.20;88.50;;;;;;4944667;29;20099;-73
2022/07/17 05:21:23;;;;;;;7.72;3.75;;;16.30;87.40;;;;;;4932989;29;20028;-74
2022/07/17 05:23:48;;;;;;;6.88;3.88;;;16.50;87.20;;;;;;4933914;29;20023;-74
2022/07/17 05:26:14;;;;;;;6.32;4.03;;;16.60;86.50;;;;;;4944144;29;20060;-75
2022/07/17 05:28:40;;;;;;;6.47;4.00;;;16.70;86.70;;;;;;4944531;29;20102;-74
2022/07/17 05:31:06;;;;;;;6.18;3.90;;;16.80;86.10;;;;;;4943719;29;20048;-75
2022/07/17 05:33:32;;;;;;;6.20;3.78;;;16.90;85.10;;;;;;4944523;29;20058;-73
2022/07/17 05:35:58;;;;;;;7.05;4.05;;;17.00;85.80;;;;;;4928210;29;20238;-73
2022/07/17 05:38:24;;;;;;;7.55;4.20;;;17.00;85.20;;;;;;4947725;29;20035;-73
2022/07/17 05:40:49;;;;;;;7.32;4.20;;;17.10;84.30;;;;;;4948305;29;20039;-72
2022/07/17 05:43:15;;;;;;;6.38;4.82;;;17.20;83.80;;;;;;4947856;29;20329;-75
2022/07/17 05:45:41;;;;;;;6.88;4.40;;;17.20;84.70;;;;;;4931252;29;20047;-71
2022/07/17 05:48:07;;;;;;;8.05;4.60;;;17.20;83.70;;;;;;4930988;29;20103;-72
2022/07/17 05:50:34;;;;;;;6.75;4.47;;;17.30;83.80;;;;;;4932343;29;20062;-73
2022/07/17 05:52:59;;;;;;;9.35;4.60;;;17.30;84.20;;;;;;4949501;29;20059;-72
2022/07/17 05:55:25;;;;;;;8.63;3.97;;;17.40;84.30;;;;;;4948576;29;20108;-71
2022/07/17 05:57:51;;;;;;;7.43;3.97;;;17.40;82.90;;;;;;4948987;29;20039;-72
2022/07/17 06:00:18;;;;;;;5.90;4.03;;;17.50;82.40;;;;;;4947303;29;20043;-72
2022/07/17 06:02:44;;;;;;;6.18;4.22;;;17.60;82.20;;;;;;4923099;29;20044;-71
2022/07/17 06:05:10;;;;;;;6.55;4.22;;;17.70;82.80;;;;;;4908647;29;20222;-71
2022/07/17 06:07:37;;;;;;;7.00;4.50;;;17.80;81.70;;;;;;4910321;29;20097;-70
2022/07/17 06:10:06;;;;;;;7.75;4.60;;;17.80;81.40;;;;;;4902525;29;20036;-71
2022/07/17 06:12:32;;;;;;;8.20;5.07;;;17.90;81.80;;;;;;4891212;29;20048;-71
2022/07/17 06:14:58;;;;;;;7.70;4.10;;;17.90;82.00;;;;;;4890921;29;20072;-70
2022/07/17 06:17:24;;;;;;;8.85;4.28;;;17.90;81.80;;;;;;4890334;29;20064;-70
2022/07/17 06:19:52;;;;;;;8.02;4.70;;;18.00;81.20;;;;;;4890845;29;20070;-71
2022/07/17 06:22:19;;;;;;;5.75;4.32;;;18.10;81.10;;;;;;4903089;29;20032;-80
2022/07/17 06:24:45;;;;;;;7.80;4.32;;;18.20;81.00;;;;;;4892711;29;20039;-71
2022/07/17 06:27:11;;;;;;;5.43;4.20;;;18.30;80.80;;;;;;4900731;29;20033;-71
2022/07/17 06:29:37;;;;;;;8.80;4.43;;;18.50;80.50;;;;;;4890615;29;20044;-71
2022/07/17 06:32:03;;;;;;;5.90;4.03;;;18.60;79.80;;;;;;4890272;29;20049;-71
2022/07/17 06:34:29;;;;;;;9.80;4.45;;;18.70;78.20;;;;;;4901710;29;20059;-71
2022/07/17 06:36:55;;;;;;;6.70;3.95;;;18.80;78.00;;;;;;4909588;29;20051;-70
2022/07/17 06:39:24;;;;;;;6.20;4.13;;;19.00;77.50;;;;;;4908722;29;20096;-71
2022/07/17 06:41:49;;;;;;;6.20;3.33;;;19.10;76.50;;;;;;4909606;29;20032;-71
2022/07/17 06:44:15;;;;;;;5.82;3.70;;;19.20;76.30;;;;;;4909256;29;20225;-71
2022/07/17 06:46:41;;;;;;;7.63;3.75;;;19.30;75.90;;;;;;4908809;29;20083;-72
2022/07/17 06:49:07;;;;;;;6.35;3.42;;;19.50;75.30;;;;;;4909392;29;20040;-72
2022/07/17 06:51:33;;;;;;;6.85;3.40;;;19.60;75.50;;;;;;4908720;29;20033;-72
2022/07/17 06:53:58;;;;;;;8.63;4.30;;;19.80;74.50;;;;;;4907845;29;20016;-73
2022/07/17 06:56:24;;;;;;;5.75;3.25;;;19.80;74.00;;;;;;4907776;29;20043;-73
2022/07/17 06:58:50;;;;;;;6.85;3.33;;;20.00;73.70;;;;;;4909110;29;20040;-72
2022/07/17 07:01:16;;;;;;;7.55;3.50;;;20.10;72.90;;;;;;4908173;29;20056;-72
2022/07/17 07:03:42;;;;;;;5.15;2.80;;;20.20;72.60;;;;;;4911287;29;20040;-72
2022/07/17 07:06:08;;;;;;;6.22;2.92;;;20.30;71.90;;;;;;4927882;29;20373;-72
2022/07/17 07:08:35;;;;;;;5.75;3.38;;;20.40;71.50;;;;;;4927689;29;20032;-72
2022/07/17 07:11:02;;;;;;;4.25;2.90;;;20.60;70.40;;;;;;4927708;29;20039;-72
2022/07/17 07:13:28;;;;;;;5.82;2.92;;;20.70;70.20;;;;;;4927103;29;20028;-71
2022/07/17 07:15:54;;;;;;;5.57;3.13;;;20.80;70.60;;;;;;4927346;29;20095;-72
2022/07/17 07:18:20;;;;;;;5.60;3.05;;;20.90;69.80;;;;;;4926497;29;20043;-72
2022/07/17 07:20:46;;;;;;;5.57;2.97;;;20.80;69.90;;;;;;4919716;29;20032;-71
2022/07/17 07:23:12;;;;;;;8.77;3.15;;;21.00;70.20;;;;;;4887571;29;20415;-72
2022/07/17 07:25:38;;;;;;;5.43;2.58;;;21.10;69.60;;;;;;4889931;29;20052;-72
2022/07/17 07:28:04;;;;;;;5.30;2.90;;;21.20;69.10;;;;;;4889653;29;20044;-72
2022/07/17 07:30:30;;;;;;;6.25;2.70;;;21.40;69.10;;;;;;4892045;29;20052;-73
2022/07/17 07:32:56;;;;;;;4.03;2.30;;;21.40;69.10;;;;;;4906919;29;20035;-72
2022/07/17 07:35:22;;;;;;;3.38;2.20;;;21.40;67.70;;;;;;4907112;29;20032;-73
2022/07/17 07:37:48;;;;;;;3.72;2.20;;;21.60;67.50;;;;;;4899300;29;20041;-72
2022/07/17 07:40:14;;;;;;;3.88;1.83;;;21.60;66.60;;;;;;4887989;29;20037;-72
2022/07/17 07:42:40;;;;;;;6.10;2.92;;;21.50;66.80;;;;;;4888479;29;20379;-72
2022/07/17 07:45:08;;;;;;;5.78;2.33;;;21.50;67.50;;;;;;4887726;29;20032;-72
2022/07/17 07:47:43;;;;;;;4.35;2.40;;;21.50;67.80;;;;;;4869327;29;20041;-72
2022/07/17 07:50:11;;;;;;;4.05;2.03;;;21.60;66.80;;;;;;4869881;29;20090;-72
2022/07/17 07:52:37;;;;;;;3.05;2.05;;;21.70;66.00;;;;;;4869365;29;20044;-73
2022/07/17 07:55:04;;;;;;;3.47;2.17;;;21.80;66.50;;;;;;4878522;29;20100;-73
2022/07/17 07:57:30;;;;;;;4.10;2.00;;;21.90;66.30;;;;;;4886402;29;20081;-72
2022/07/17 07:59:55;;;;;;;6.07;1.73;;;21.90;65.50;;;;;;4887543;29;20188;-73
2022/07/17 08:02:21;;;;;;;4.05;1.80;;;21.90;65.20;;;;;;4913080;29;20068;-72
2022/07/17 08:04:50;;;;;;;2.67;1.60;;;22.10;65.20;;;;;;4925733;29;20040;-73
2022/07/17 08:07:16;;;;;;;3.63;1.90;;;22.10;64.70;;;;;;4910469;29;20028;-73
2022/07/17 08:09:42;;;;;;;3.78;2.28;;;22.20;65.20;;;;;;4909115;29;20043;-73
2022/07/17 08:12:08;;;;;;;4.15;1.85;;;22.30;65.20;;;;;;4906551;29;20024;-72
2022/07/17 08:14:34;;;;;;;3.85;1.90;;;22.60;64.80;;;;;;4906437;29;20318;-72
2022/07/17 08:16:59;;;;;;;4.00;2.10;;;22.70;64.00;;;;;;4906025;29;20064;-72
2022/07/17 08:19:25;;;;;;;4.43;2.00;;;22.80;63.50;;;;;;4906084;29;20041;-72
2022/07/17 08:21:51;;;;;;;3.80;1.95;;;22.80;64.00;;;;;;4906482;29;20307;-72
2022/07/17 08:24:17;;;;;;;3.72;1.98;;;22.90;63.80;;;;;;4906213;29;20101;-72
2022/07/17 08:26:43;;;;;;;5.28;1.73;;;22.90;63.30;;;;;;4906537;29;20081;-72
2022/07/17 08:29:09;;;;;;;3.30;1.92;;;22.90;64.00;;;;;;4906273;29;20036;-72
2022/07/17 08:31:35;;;;;;;3.05;1.92;;;23.00;63.60;;;;;;4905300;29;20420;-72
2022/07/17 08:34:01;;;;;;;3.00;1.85;;;23.10;63.10;;;;;;4906295;29;20040;-71
2022/07/17 08:36:27;;;;;;;2.80;1.73;;;23.10;62.50;;;;;;4905778;29;20040;-69
2022/07/17 08:38:53;;;;;;;5.28;1.73;;;23.10;62.80;;;;;;4889208;29;20028;-69
2022/07/17 08:41:22;;;;;;;3.45;1.70;;;23.10;63.10;;;;;;4905735;29;20204;-73
2022/07/17 08:43:48;;;;;;;3.72;1.90;;;23.40;62.60;;;;;;4905965;29;20062;-71
2022/07/17 08:46:16;;;;;;;3.30;1.75;;;23.50;61.70;;;;;;4905405;29;20044;-70
2022/07/17 08:48:44;;;;;;;2.80;1.70;;;23.60;61.20;;;;;;4906115;29;20033;-70
2022/07/17 08:51:11;;;;;;;2.60;1.70;;;23.70;61.30;;;;;;4904927;29;20040;-70
2022/07/17 08:53:37;;;;;;;2.90;1.88;;;23.80;60.70;;;;;;4888715;29;20148;-71
2022/07/17 08:56:06;;;;;;;3.88;1.73;;;23.90;60.50;;;;;;4905975;29;20036;-71
2022/07/17 08:58:32;;;;;;;2.95;1.70;;;23.90;60.00;;;;;;4905314;29;20322;-70
2022/07/17 09:00:58;;;;;;;3.42;1.55;;;23.90;60.20;;;;;;4905582;29;20081;-71
2022/07/17 09:03:30;;;;;;;4.82;1.58;;;24.10;60.20;;;;;;4888505;29;20119;-70
2022/07/17 09:05:55;;;;;;;5.03;1.92;;;24.10;60.40;;;;;;4905468;29;20084;-71
2022/07/17 09:08:23;;;;;;;4.80;1.90;;;24.30;59.60;;;;;;4905250;29;20064;-71
2022/07/17 09:10:53;;;;;;;2.30;1.67;;;24.20;59.00;;;;;;4905464;29;20097;-71
2022/07/17 09:13:28;;;;;;;4.32;1.60;;;24.30;59.40;;;;;;4905454;29;20059;-71
2022/07/17 09:16:06;;;;;;;4.15;1.60;;;24.40;59.70;;;;;;4905124;29;20052;-71
2022/07/17 09:18:41;;;;;;;3.45;1.40;;;24.50;58.60;;;;;;4905515;29;20079;-70
2022/07/17 09:21:07;;;;;;;2.70;1.60;;;24.60;58.20;;;;;;4905881;29;20033;-70
2022/07/17 09:23:34;;;;;;;3.00;1.60;;;24.70;57.90;;;;;;4905877;29;20040;-70
2022/07/17 09:26:00;;;;;;;4.38;1.25;;;24.70;58.20;;;;;;4906725;29;20032;-70
2022/07/17 09:28:26;;;;;;;4.55;1.27;;;24.80;58.60;;;;;;4905946;29;20256;-70
2022/07/17 09:30:54;;;;;;;3.33;1.33;;;25.00;58.00;;;;;;4906934;29;20060;-71
2022/07/17 09:33:24;;;;;;;2.80;1.23;;;25.10;56.00;;;;;;4889389;29;20040;-70
2022/07/17 09:35:55;;;;;;;3.00;1.42;;;25.10;55.60;;;;;;4906752;29;20033;-70
2022/07/17 09:38:32;;;;;;;2.15;0.90;;;25.20;55.20;;;;;;4906284;29;20037;-71
2022/07/17 09:41:09;;;;;;;2.42;1.10;;;25.30;54.30;;;;;;4905524;29;20378;-70
2022/07/17 09:43:48;;;;;;;2.47;0.93;;;25.30;54.90;;;;;;4906496;29;20059;-70
2022/07/17 09:46:27;;;;;;;2.17;1.20;;;25.30;54.50;;;;;;4904405;29;20101;-72
2022/07/17 09:49:07;;;;;;;2.47;1.10;;;25.40;53.70;;;;;;4906525;29;20040;-74
2022/07/17 09:51:39;;;;;;;2.97;0.98;;;25.60;53.50;;;;;;4906522;29;20032;-75
2022/07/17 09:54:10;;;;;;;2.28;1.00;;;25.60;53.80;;;;;;4906843;29;20040;-74
2022/07/17 09:56:40;;;;;;;2.40;1.38;;;25.70;54.00;;;;;;4906094;29;20041;-74
2022/07/17 09:59:07;;;;;;;1.70;0.93;;;25.80;53.30;;;;;;4906845;29;20041;-72
2022/07/17 10:01:38;;;;;;;2.40;1.30;;;25.80;54.10;;;;;;4905218;29;20037;-74
2022/07/17 10:04:11;;;;;;;2.22;1.05;;;25.80;53.70;;;;;;4905829;29;20036;-75
2022/07/17 10:06:40;;;;;;;2.05;0.93;;;25.90;53.00;;;;;;4906523;29;20116;-75
2022/07/17 10:09:10;;;;;;;4.43;1.10;;;25.90;52.20;;;;;;4906518;29;20036;-73
2022/07/17 10:11:41;;;;;;;1.70;0.95;;;25.90;53.40;;;;;;4886985;29;20037;-73
2022/07/17 10:14:11;;;;;;;2.72;1.20;;;26.00;52.20;;;;;;4905596;29;20045;-73
2022/07/17 10:16:38;;;;;;;3.00;1.27;;;26.00;53.30;;;;;;4905490;29;20052;-71
2022/07/17 10:19:24;;;;;;;2.50;1.30;;;26.10;53.10;;;;;;4906599;29;20211;-73
2022/07/17 10:22:05;;;;;;;2.92;1.15;;;26.10;52.50;;;;;;4906763;29;20299;-72
2022/07/17 10:24:44;;;;;;;3.97;1.40;;;26.00;52.80;;;;;;4908292;29;20339;-72
2022/07/17 10:27:21;;;;;;;4.07;1.65;;;25.90;53.20;;;;;;4891510;29;20064;-73
2022/07/17 10:29:58;;;;;;;5.20;3.13;;;25.90;53.60;;;;;;4904594;29;20331;-73
2022/07/17 10:32:23;;;;;;;8.32;5.65;;;26.10;53.10;;;;;;4908962;29;20108;-73
2022/07/17 10:34:58;;;;;;;2.85;1.20;;;26.20;53.90;;;;;;4909508;29;20171;-74
2022/07/17 10:37:35;;;;;;;5.25;3.03;;;26.20;53.60;;;;;;4892463;29;20048;-73
2022/07/17 10:40:32;;;;;;;2.03;1.10;;;26.40;53.00;;;;;;4908305;29;20056;-75
2022/07/17 10:43:04;;;;;;;6.88;2.47;;;26.50;53.60;;;;;;4894262;29;20072;-75
2022/07/17 10:45:39;;;;;;;2.22;1.35;;;26.60;53.00;;;;;;4908175;29;20108;-74
2022/07/17 10:48:16;;;;;;;2.22;1.08;;;26.60;53.10;;;;;;4909635;29;20318;-74
2022/07/17 10:50:51;;;;;;;2.70;1.60;;;26.70;52.00;;;;;;4905556;29;20048;-75
2022/07/17 10:53:24;;;;;;;4.47;1.30;;;26.80;52.20;;;;;;4899898;29;20035;-73
2022/07/17 10:56:03;;;;;;;3.85;1.90;;;26.80;52.00;;;;;;4897505;29;20363;-73
2022/07/17 10:58:34;;;;;;;2.42;1.40;;;26.80;52.50;;;;;;4908923;29;20048;-74
2022/07/17 11:01:09;;;;;;;3.65;1.38;;;27.00;52.20;;;;;;4908463;29;20045;-73
2022/07/17 11:03:54;;;;;;;2.92;1.42;;;27.10;52.00;;;;;;4908320;29;20104;-73
2022/07/17 11:06:30;;;;;;;1.88;0.90;;;27.30;51.60;;;;;;4908654;29;20037;-73
2022/07/17 11:09:03;;;;;;;2.30;1.15;;;27.40;50.20;;;;;;4908809;29;20052;-73
2022/07/17 11:11:46;;;;;;;2.00;1.10;;;27.50;49.40;;;;;;4889645;29;20210;-72
2022/07/17 11:14:18;;;;;;;2.10;1.00;;;27.70;49.60;;;;;;4902907;29;20037;-73
2022/07/17 11:16:58;;;;;;;2.08;1.10;;;27.70;50.10;;;;;;4908801;29;20047;-73
2022/07/17 11:19:34;;;;;;;2.50;1.23;;;27.50;50.00;;;;;;4909304;29;20101;-73
2022/07/17 11:22:03;;;;;;;2.70;1.27;;;27.70;50.30;;;;;;4909132;29;20031;-74
2022/07/17 11:24:39;;;;;;;2.72;0.88;;;27.90;49.10;;;;;;4908564;29;20032;-73
2022/07/17 11:27:05;;;;;;;2.17;1.10;;;28.20;49.10;;;;;;4907249;29;20048;-74
2022/07/17 11:29:37;;;;;;;2.45;1.08;;;28.30;48.70;;;;;;4908139;29;20107;-73
2022/07/17 11:32:03;;;;;;;1.92;1.05;;;28.40;48.80;;;;;;4908256;29;20393;-73
2022/07/17 11:34:28;;;;;;;2.35;1.13;;;28.60;48.60;;;;;;4907098;29;20040;-73
2022/07/17 11:37:03;;;;;;;2.22;0.95;;;28.80;48.00;;;;;;4908356;29;20028;-73
2022/07/17 11:39:43;;;;;;;2.72;1.05;;;29.30;47.10;;;;;;4907954;29;20070;-73
2022/07/17 11:42:14;;;;;;;2.58;1.02;;;29.90;47.20;;;;;;4908633;29;20032;-72
2022/07/17 11:44:40;;;;;;;2.58;0.90;;;30.40;46.00;;;;;;4907932;29;20039;-73
2022/07/17 11:47:06;;;;;;;2.45;1.00;;;31.10;46.90;;;;;;4907432;29;20060;-73
2022/07/17 11:49:39;;;;;;;1.90;0.90;;;31.60;46.00;;;;;;4906691;29;20036;-71
2022/07/17 11:52:13;;;;;;;2.95;1.10;;;32.40;45.00;;;;;;4908385;29;20029;-72
2022/07/17 11:54:54;;;;;;;2.38;1.10;;;33.60;45.60;;;;;;4890817;29;20044;-72
2022/07/17 11:57:22;;;;;;;2.03;0.90;;;34.00;43.60;;;;;;4908319;29;20220;-73
2022/07/17 11:59:49;;;;;;;2.40;1.20;;;34.70;43.30;;;;;;4907312;29;20105;-73
2022/07/17 12:02:18;;;;;;;1.73;0.70;;;35.70;42.50;;;;;;4907102;29;20052;-74
2022/07/17 12:04:56;;;;;;;1.55;0.90;;;36.50;41.70;;;;;;4905924;29;20225;-73
2022/07/17 12:07:23;;;;;;;2.10;0.80;;;37.20;40.80;;;;;;4899198;29;20028;-73
2022/07/17 12:09:49;;;;;;;;;;;37.60;40.40;;;;;;4896979;29;20045;-72
2022/07/17 12:12:26;;;;;;;2.08;0.77;;;38.30;39.80;;;;;;4900989;29;19973;-74
2022/07/17 12:14:54;;;;;;;1.60;0.80;;;38.80;39.10;;;;;;4907510;29;20241;-74
2022/07/17 12:17:21;;;;;;;3.78;0.90;;;38.80;39.20;;;;;;4906909;29;20227;-73
2022/07/17 12:19:47;;;;;;;1.65;0.77;;;39.90;39.30;;;;;;4907201;29;20079;-73
2022/07/17 12:22:13;;;;;;;1.85;0.80;;;40.90;38.60;;;;;;4907870;29;20041;-73
2022/07/17 12:24:41;;;;;;;1.60;0.70;;;41.30;37.70;;;;;;4907536;29;20062;-73
2022/07/17 12:27:09;;;;;;;0.82;0.50;;;42.30;37.90;;;;;;4907377;29;20091;-74
2022/07/17 12:29:36;;;;;;;1.42;0.60;;;41.80;36.90;;;;;;4894637;29;20109;-74
2022/07/17 12:32:02;;;;;;;2.50;1.00;;;41.60;37.30;;;;;;4888692;29;20056;-73
2022/07/17 12:34:35;;;;;;;1.58;0.70;;;41.40;37.60;;;;;;4900634;29;20107;-74
2022/07/17 12:37:01;;;;;;;2.38;0.70;;;41.40;37.80;;;;;;4907388;29;20056;-74
2022/07/17 12:39:27;;;;;;;1.13;0.70;;;41.90;37.60;;;;;;4907674;29;20302;-72
2022/07/17 12:41:53;;;;;;;2.00;0.70;;;42.60;37.30;;;;;;4907074;29;20028;-75
2022/07/17 12:44:19;;;;;;;4.13;0.80;;;42.30;37.20;;;;;;4907427;29;20040;-74
2022/07/17 12:46:44;;;;;;;2.50;0.70;;;43.00;37.70;;;;;;4905617;29;20099;-75
2022/07/17 12:49:10;;;;;;;2.00;0.85;;;43.70;37.00;;;;;;4907186;29;20092;-72
2022/07/17 12:51:36;;;;;;;1.50;0.70;;;44.60;36.60;;;;;;4905262;29;20033;-74
2022/07/17 12:54:02;;;;;;;2.38;0.55;;;44.80;35.90;;;;;;4907058;29;20028;-73
2022/07/17 12:56:27;;;;;;;1.38;0.90;;;45.10;35.10;;;;;;4907008;29;20306;-73
2022/07/17 12:58:53;;;;;;;1.25;0.70;;;45.20;35.40;;;;;;4906264;29;20076;-73
2022/07/17 13:01:19;;;;;;;2.13;0.60;;;45.10;35.00;;;;;;4905491;29;20072;-73
2022/07/17 13:03:46;;;;;;;3.08;0.50;;;45.10;34.50;;;;;;4887779;29;20080;-75
2022/07/17 13:06:12;;;;;;;1.40;0.70;;;45.30;34.40;;;;;;4888610;29;20036;-74
2022/07/17 13:08:38;;;;;;;2.03;0.60;;;45.10;34.00;;;;;;4887217;29;20089;-73
2022/07/17 13:11:04;;;;;;;2.80;0.80;;;45.10;34.70;;;;;;4888476;29;20202;-74
2022/07/17 13:13:30;;;;;;;1.77;0.60;;;45.30;34.90;;;;;;4888406;29;20029;-74
2022/07/17 13:15:56;;;;;;;1.77;0.70;;;45.10;34.10;;;;;;4887207;29;20510;-74
2022/07/17 13:18:23;;;;;;;2.92;0.40;;;45.10;33.80;;;;;;4888228;29;20052;-77
2022/07/17 13:20:49;;;;;;;1.97;0.77;;;45.20;33.80;;;;;;4887887;29;20040;-74
2022/07/17 13:23:15;;;;;;;1.67;0.68;;;45.40;33.60;;;;;;4888662;29;20021;-76
2022/07/17 13:25:43;;;;;;;1.53;0.60;;;46.40;33.90;;;;;;4887814;29;20202;-74
2022/07/17 13:28:09;;;;;;;1.88;0.60;;;47.20;33.60;;;;;;4886810;29;20495;-75
2022/07/17 13:30:35;;;;;;;1.25;0.70;;;47.50;32.90;;;;;;4868240;29;20033;-75
2022/07/17 13:33:02;;;;;;;1.33;0.70;;;47.40;32.30;;;;;;4868314;29;20108;-76
2022/07/17 13:35:28;;;;;;;1.40;0.75;;;47.10;32.60;;;;;;4881216;29;20039;-75
2022/07/17 13:37:54;;;;;;;;;;;47.60;32.20;;;;;;4886811;29;20175;-73
2022/07/17 13:40:20;;;;;;;2.55;0.70;;;48.50;32.50;;;;;;4886727;29;19997;-74
2022/07/17 13:42:46;;;;;;;1.70;0.60;;;48.40;32.30;;;;;;4886837;29;20330;-76
2022/07/17 13:45:12;;;;;;;1.63;0.77;;;48.20;32.00;;;;;;4886249;29;20319;-76
2022/07/17 13:47:38;;;;;;;1.77;0.77;;;48.10;31.60;;;;;;4886757;29;20033;-75
2022/07/17 13:50:05;;;;;;;1.35;0.65;;;48.70;32.20;;;;;;4886881;29;20307;-75
2022/07/17 13:52:31;;;;;;;4.63;1.02;;;49.70;32.20;;;;;;4886825;29;20052;-75
2022/07/17 13:54:57;;;;;;;2.53;0.63;;;49.10;32.00;;;;;;4886394;29;20021;-76
2022/07/17 13:57:24;;;;;;;2.03;0.73;;;48.80;32.30;;;;;;4887203;29;20035;-76
2022/07/17 13:59:50;;;;;;;1.50;0.77;;;48.40;31.50;;;;;;4877263;29;20041;-75
2022/07/17 14:02:16;;;;;;;1.20;0.60;;;48.00;32.00;;;;;;4903752;29;20055;-77
2022/07/17 14:04:41;;;;;;;1.98;0.60;;;48.80;32.30;;;;;;4903065;29;20033;-74
2022/07/17 14:07:08;;;;;;;2.97;0.53;;;49.70;31.70;;;;;;4907595;29;20206;-76
2022/07/17 14:09:34;;;;;;;2.42;0.80;;;50.20;31.60;;;;;;4911376;29;20024;-75
2022/07/17 14:12:00;;;;;;;1.45;0.40;;;50.50;31.60;;;;;;4890177;29;20036;-75
2022/07/17 14:14:26;;;;;;;1.20;0.60;;;50.20;31.30;;;;;;4925665;29;20039;-77
2022/07/17 14:16:52;;;;;;;1.50;0.70;;;49.70;31.50;;;;;;4926860;29;20074;-75
2022/07/17 14:19:18;;;;;;;1.80;0.60;;;49.60;31.20;;;;;;4927419;29;20054;-75
2022/07/17 14:21:44;;;;;;;1.33;0.50;;;49.50;31.40;;;;;;4910210;29;20024;-75
2022/07/17 14:24:10;;;;;;;1.17;0.60;;;49.40;31.20;;;;;;4908583;29;20032;-75
2022/07/17 14:26:36;;;;;;;1.35;0.85;;;49.70;31.80;;;;;;4926338;29;20436;-75
2022/07/17 14:29:03;;;;;;;1.40;0.50;;;50.20;31.50;;;;;;4927479;29;20103;-75
2022/07/17 14:31:29;;;;;;;1.40;0.60;;;49.70;32.20;;;;;;4910066;29;20043;-74
2022/07/17 14:33:55;;;;;;;1.43;0.60;;;49.40;31.20;;;;;;4927212;29;20024;-75
2022/07/17 14:36:21;;;;;;;1.88;0.70;;;50.60;31.20;;;;;;4927351;29;20785;-74
2022/07/17 14:38:47;;;;;;;0.90;0.50;;;51.50;30.80;;;;;;4926864;29;20068;-74
2022/07/17 14:41:13;;;;;;;2.15;0.63;;;51.10;30.60;;;;;;4927600;29;20035;-75
2022/07/17 14:43:39;;;;;;;1.38;0.60;;;51.20;30.20;;;;;;4926996;29;20036;-75
2022/07/17 14:46:05;;;;;;;2.53;0.50;;;50.80;31.00;;;;;;4926758;29;20273;-74
2022/07/17 14:48:31;;;;;;;0.88;0.40;;;51.20;31.80;;;;;;4927194;29;20596;-75
2022/07/17 14:50:57;;;;;;;2.45;0.60;;;51.00;30.60;;;;;;4926689;29;20061;-75
2022/07/17 14:53:22;;;;;;;1.80;0.60;;;51.30;30.60;;;;;;4916456;29;20060;-73
2022/07/17 14:55:48;;;;;;;1.95;0.60;;;51.40;31.30;;;;;;4908062;29;20029;-75
2022/07/17 14:58:14;;;;;;;3.75;0.98;;;51.20;30.70;;;;;;4908036;29;20032;-75
2022/07/17 15:00:40;;;;;;;1.13;0.73;;;51.10;31.00;;;;;;4890345;29;20052;-74
2022/07/17 15:03:06;;;;;;;1.67;0.70;;;50.80;30.90;;;;;;4895752;29;20264;-74
2022/07/17 15:05:32;;;;;;;1.00;0.50;;;50.70;30.50;;;;;;4889003;29;20067;-75
2022/07/17 15:07:57;;;;;;;2.67;0.70;;;51.30;30.80;;;;;;4888695;29;20037;-74
2022/07/17 15:10:23;;;;;;;2.35;0.80;;;51.40;31.00;;;;;;4889377;29;20230;-75
2022/07/17 15:12:49;;;;;;;1.67;0.85;;;51.00;30.60;;;;;;4871840;29;20035;-75
2022/07/17 15:15:15;;;;;;;2.23;0.70;;;51.60;30.70;;;;;;4871888;29;20255;-75
2022/07/17 15:17:40;;;;;;;1.20;0.73;;;52.20;30.80;;;;;;4872164;29;20040;-76
2022/07/17 15:20:06;;;;;;;2.73;0.80;;;52.00;31.00;;;;;;4889302;29;20497;-75
2022/07/17 15:22:35;;;;;;;1.95;0.60;;;51.70;31.10;;;;;;4888945;29;20350;-75
2022/07/17 15:25:01;;;;;;;2.15;0.90;;;51.30;31.20;;;;;;4888643;29;20037;-74
2022/07/17 15:27:26;;;;;;;1.17;0.70;;;50.90;31.30;;;;;;4888836;29;20043;-75
2022/07/17 15:29:52;;;;;;;2.58;0.77;;;51.20;31.20;;;;;;4887758;29;20032;-75
2022/07/17 15:32:18;;;;;;;1.73;0.77;;;51.50;31.30;;;;;;4882901;29;20304;-74
2022/07/17 15:34:44;;;;;;;2.30;0.70;;;51.20;30.80;;;;;;4874420;29;20024;-75
2022/07/17 15:37:09;;;;;;;1.20;0.70;;;50.10;31.20;;;;;;4884844;29;20068;-74
2022/07/17 15:39:35;;;;;;;1.40;0.80;;;50.20;31.90;;;;;;4863736;29;20208;-75
2022/07/17 15:42:01;;;;;;;1.87;0.60;;;49.70;30.90;;;;;;4851245;29;20236;-75
2022/07/17 15:44:27;;;;;;;2.47;0.80;;;50.30;31.10;;;;;;4859331;29;20315;-77
2022/07/17 15:46:53;;;;;;;2.87;0.63;;;49.80;30.90;;;;;;4897543;29;20141;-75
2022/07/17 15:49:20;;;;;;;1.17;0.70;;;50.20;31.20;;;;;;4906613;29;20033;-76
2022/07/17 15:52:00;;;;;;;1.52;0.68;;;50.80;31.40;;;;;;4907304;29;20084;-74
2022/07/17 15:54:27;;;;;;;1.30;0.70;;;50.80;31.20;;;;;;4887227;29;20068;-75
2022/07/17 15:57:08;;;;;;;4.43;1.13;;;50.60;31.30;;;;;;4888921;29;20080;-77
2022/07/17 15:59:47;;;;;;;2.50;0.80;;;50.30;31.60;;;;;;4895436;29;20055;-75
2022/07/17 16:02:13;;;;;;;2.63;0.97;;;49.70;31.70;;;;;;4889777;29;20081;-74
2022/07/17 16:04:41;;;;;;;1.43;0.70;;;50.80;31.60;;;;;;4901226;29;20033;-75
2022/07/17 16:07:07;;;;;;;1.60;0.73;;;50.50;31.40;;;;;;4889480;29;20047;-75
2022/07/17 16:09:34;;;;;;;3.80;0.60;;;50.10;31.40;;;;;;4902214;29;20036;-74
2022/07/17 16:11:59;;;;;;;1.42;0.80;;;50.80;31.40;;;;;;4924457;29;20032;-72
2022/07/17 16:14:25;;;;;;;2.70;0.70;;;50.30;31.30;;;;;;4926799;29;20039;-77
2022/07/17 16:16:51;;;;;;;2.20;0.60;;;50.60;31.60;;;;;;4925701;29;20448;-77
2022/07/17 16:19:35;;;;;;;1.57;0.77;;;50.10;31.30;;;;;;4924749;29;20028;-83
2022/07/17 16:22:01;;;;;;;1.48;0.63;;;49.30;31.70;;;;;;4907222;29;20100;-77
2022/07/17 16:24:26;;;;;;;1.57;0.70;;;49.70;31.80;;;;;;4914396;29;20193;-74
2022/07/17 16:26:52;;;;;;;3.20;1.57;;;50.60;31.60;;;;;;4907167;29;20036;-77
2022/07/17 16:29:18;;;;;;;3.60;0.90;;;50.40;31.50;;;;;;4924688;29;20032;-76
2022/07/17 16:31:44;;;;;;;1.40;0.70;;;50.90;31.70;;;;;;4906829;29;20048;-74
2022/07/17 16:34:09;;;;;;;2.47;0.80;;;50.10;31.20;;;;;;4907847;29;20027;-75
2022/07/17 16:36:35;;;;;;;1.77;0.80;;;50.70;31.50;;;;;;4907683;29;20214;-74
2022/07/17 16:39:01;;;;;;;2.03;0.83;;;50.70;31.20;;;;;;4907099;29;20124;-76
2022/07/17 16:41:27;;;;;;;1.80;0.70;;;50.10;31.30;;;;;;4908154;29;20040;-76
2022/07/17 16:43:52;;;;;;;1.87;0.67;;;49.90;31.30;;;;;;4927441;29;20028;-74
2022/07/17 16:46:18;;;;;;;1.87;0.70;;;49.40;31.50;;;;;;4927371;29;20044;-74
2022/07/17 16:48:44;;;;;;;2.30;0.80;;;49.70;31.60;;;;;;4927572;29;20362;-74
2022/07/17 16:51:10;;;;;;;1.35;0.70;;;49.70;31.60;;;;;;4927227;29;20063;-74
2022/07/17 16:53:36;;;;;;;2.77;0.80;;;48.90;31.60;;;;;;4919921;29;20044;-74
2022/07/17 16:56:01;;;;;;;1.40;0.70;;;47.00;32.00;;;;;;4925553;29;20032;-74
2022/07/17 16:58:27;;;;;;;2.83;0.90;;;45.00;33.20;;;;;;4926042;29;20314;-73
2022/07/17 17:00:53;;;;;;;2.90;0.80;;;43.00;34.00;;;;;;4924594;29;20051;-74
2022/07/17 17:03:19;;;;;;;1.67;0.75;;;42.40;34.40;;;;;;4938039;29;20082;-74
2022/07/17 17:05:44;;;;;;;2.03;1.00;;;40.90;34.60;;;;;;4945335;29;20389;-74
2022/07/17 17:08:10;;;;;;;2.38;1.05;;;39.50;35.60;;;;;;4944865;29;20050;-73
2022/07/17 17:10:37;;;;;;;2.25;0.80;;;38.70;36.70;;;;;;4944888;29;20034;-73
2022/07/17 17:13:04;;;;;;;2.03;0.80;;;39.60;36.40;;;;;;4944631;29;20031;-74
2022/07/17 17:15:29;;;;;;;1.70;0.80;;;40.90;35.70;;;;;;4927417;29;20241;-74
2022/07/17 17:17:56;;;;;;;3.13;0.95;;;42.10;34.70;;;;;;4944093;29;20039;-74
2022/07/17 17:20:21;;;;;;;2.72;0.70;;;43.30;34.10;;;;;;4944769;29;20078;-76
2022/07/17 17:22:48;;;;;;;3.38;0.73;;;44.40;34.20;;;;;;4944034;29;20040;-74
2022/07/17 17:25:14;;;;;;;2.10;0.82;;;44.50;33.00;;;;;;4927335;29;20063;-75
2022/07/17 17:27:39;;;;;;;2.63;1.05;;;44.50;33.20;;;;;;4930271;29;20091;-75
2022/07/17 17:30:06;;;;;;;2.33;0.80;;;44.70;33.20;;;;;;4943710;29;20031;-74
2022/07/17 17:32:32;;;;;;;1.73;0.75;;;44.80;33.10;;;;;;4947466;29;20034;-75
2022/07/17 17:34:58;;;;;;;1.65;0.60;;;45.00;33.00;;;;;;4948186;29;20040;-75
2022/07/17 17:37:24;;;;;;;1.90;0.63;;;45.30;32.90;;;;;;4948630;29;20039;-74
2022/07/17 17:39:50;;;;;;;3.50;0.90;;;45.20;32.70;;;;;;4947179;29;20046;-74
2022/07/17 17:42:16;;;;;;;1.73;0.60;;;45.60;32.70;;;;;;4948210;29;20108;-75
2022/07/17 17:44:42;;;;;;;2.28;0.80;;;45.30;32.70;;;;;;4947105;29;20222;-75
2022/07/17 17:47:08;;;;;;;1.88;0.80;;;45.40;32.60;;;;;;4928528;29;20098;-74
2022/07/17 17:49:34;;;;;;;1.50;0.70;;;45.20;32.70;;;;;;4935996;29;20225;-74
2022/07/17 17:52:00;;;;;;;4.38;1.10;;;44.90;33.20;;;;;;4938166;29;20031;-74